createdAt,value
2023-05-01T00:02:07.894Z,12.99
2023-05-01T00:04:40.312Z,12.99
2023-05-01T00:07:09.981Z,12.99
2023-05-01T00:09:39.494Z,12.97
2023-05-01T00:12:08.975Z,12.96
2023-05-01T00:14:38.558Z,12.96
2023-05-01T00:17:08.239Z,12.95
2023-05-01T00:19:37.857Z,12.93
2023-05-01T00:22:07.667Z,12.92
2023-05-01T00:24:37.547Z,12.89
2023-05-01T00:27:07.025Z,12.88
2023-05-01T00:29:36.507Z,12.86
2023-05-01T00:32:06.255Z,12.85
2023-05-01T00:34:35.666Z,12.83
2023-05-01T00:37:05.264Z,12.81
2023-05-01T00:39:35.813Z,12.81
2023-05-01T00:42:06.944Z,12.79
2023-05-01T00:44:36.628Z,12.79
2023-05-01T00:47:06.713Z,12.76
2023-05-01T00:49:36.527Z,12.74
2023-05-01T00:52:06.586Z,12.71
2023-05-01T00:54:37.855Z,12.68
2023-05-01T00:57:10.046Z,12.62
2023-05-01T00:59:40.219Z,12.57
2023-05-01T01:02:09.739Z,12.55
2023-05-01T01:04:45.995Z,12.55
2023-05-01T01:08:12.214Z,12.57
2023-05-01T01:10:58.242Z,12.44
2023-05-01T01:13:39.901Z,12.44
2023-05-01T01:16:23.846Z,12.44
2023-05-01T01:19:20.942Z,12.45
2023-05-01T01:21:55.833Z,12.43
2023-05-01T01:24:51.208Z,12.35
2023-05-01T01:27:58.314Z,12.31
2023-05-01T01:30:49.832Z,12.29
2023-05-01T01:33:49.272Z,12.31
2023-05-01T01:37:08.714Z,12.26
2023-05-01T01:40:16.652Z,12.20
2023-05-01T01:42:59.139Z,12.17
2023-05-01T01:45:45.905Z,12.12
2023-05-01T01:48:24.621Z,12.01
2023-05-01T01:50:58.616Z,11.97
2023-05-01T01:53:31.942Z,11.95
2023-05-01T01:56:06.709Z,11.88
2023-05-01T01:58:40.925Z,11.88
2023-05-01T02:01:12.383Z,11.93
2023-05-01T02:03:44.390Z,11.99
2023-05-01T02:06:16.341Z,12.05
2023-05-01T02:08:49.206Z,12.10
2023-05-01T02:11:22.303Z,12.14
2023-05-01T02:13:55.138Z,12.16
2023-05-01T02:16:26.049Z,12.17
2023-05-01T02:18:58.311Z,12.17
2023-05-01T02:21:31.927Z,12.16
2023-05-01T02:24:03.041Z,12.13
2023-05-01T02:26:56.099Z,12.10
2023-05-01T02:29:26.991Z,12.08
2023-05-01T02:32:08.908Z,11.98
2023-05-01T02:34:39.401Z,11.91
2023-05-01T02:37:14.123Z,11.87
2023-05-01T02:39:44.714Z,11.87
2023-05-01T02:42:19.144Z,11.89
2023-05-01T02:45:03.419Z,11.88
2023-05-01T02:47:43.596Z,11.81
2023-05-01T02:50:15.348Z,11.77
2023-05-01T02:52:51.056Z,11.72
2023-05-01T02:55:44.763Z,11.62
2023-05-01T02:58:21.465Z,11.60
2023-05-01T03:00:51.787Z,11.60
2023-05-01T03:03:22.298Z,11.59
2023-05-01T03:05:52.319Z,11.58
2023-05-01T03:08:23.371Z,11.55
2023-05-01T03:11:07.045Z,11.49
2023-05-01T03:13:36.658Z,11.46
2023-05-01T03:16:06.660Z,11.44
2023-05-01T03:18:37.015Z,11.45
2023-05-01T03:21:29.678Z,11.46
2023-05-01T03:24:01.732Z,11.42
2023-05-01T03:26:33.142Z,11.40
2023-05-01T03:29:03.461Z,11.43
2023-05-01T03:31:34.898Z,11.43
2023-05-01T03:34:04.817Z,11.40
2023-05-01T03:36:34.582Z,11.40
2023-05-01T03:39:05.093Z,11.39
2023-05-01T03:42:30.949Z,11.39
2023-05-01T03:45:04.362Z,11.41
2023-05-01T03:47:54.226Z,11.46
2023-05-01T03:50:24.250Z,11.47
2023-05-01T03:52:54.931Z,11.50
2023-05-01T03:55:25.097Z,11.53
2023-05-01T03:57:55.344Z,11.57
2023-05-01T04:00:25.465Z,11.60
2023-05-01T04:02:56.942Z,11.66
2023-05-01T04:05:26.899Z,11.72
2023-05-01T04:08:00.632Z,11.78
2023-05-01T04:10:30.162Z,11.82
2023-05-01T04:13:12.284Z,11.86
2023-05-01T04:15:46.893Z,11.90
2023-05-01T04:18:17.665Z,11.94
2023-05-01T04:20:52.764Z,11.99
2023-05-01T04:23:24.757Z,12.00
2023-05-01T04:25:55.532Z,12.04
2023-05-01T04:28:25.514Z,12.10
2023-05-01T04:30:56.005Z,12.12
2023-05-01T04:33:26.123Z,12.19
2023-05-01T04:35:55.810Z,12.30
2023-05-01T04:38:29.132Z,12.44
2023-05-01T04:40:59.247Z,12.56
2023-05-01T04:43:28.725Z,12.69
2023-05-01T04:45:59.780Z,12.81
2023-05-01T04:48:30.604Z,12.92
2023-05-01T04:51:05.122Z,13.04
2023-05-01T04:53:36.874Z,13.09
2023-05-01T04:56:07.460Z,13.14
2023-05-01T04:58:49.122Z,13.23
2023-05-01T05:01:22.899Z,13.27
2023-05-01T05:03:55.240Z,13.35
2023-05-01T05:06:27.180Z,13.41
2023-05-01T05:08:58.134Z,13.45
2023-05-01T05:11:30.614Z,13.52
2023-05-01T05:14:04.281Z,13.54
2023-05-01T05:16:35.220Z,13.62
2023-05-01T05:19:05.010Z,13.73
2023-05-01T05:21:38.046Z,13.81
2023-05-01T05:24:08.662Z,13.88
2023-05-01T05:26:38.352Z,13.96
2023-05-01T05:29:08.879Z,14.04
2023-05-01T05:31:39.121Z,14.16
2023-05-01T05:34:09.523Z,14.29
2023-05-01T05:36:39.341Z,14.41
2023-05-01T05:39:08.939Z,14.51
2023-05-01T05:41:39.805Z,14.61
2023-05-01T05:44:09.321Z,14.75
2023-05-01T05:46:39.306Z,14.89
2023-05-01T05:49:09.537Z,15.05
2023-05-01T05:51:39.167Z,15.13
2023-05-01T05:54:12.790Z,15.22
2023-05-01T05:56:43.585Z,15.36
2023-05-01T05:59:16.613Z,15.47
2023-05-01T06:01:47.513Z,15.57
2023-05-01T06:04:17.132Z,15.69
2023-05-01T06:06:47.686Z,15.81
2023-05-01T06:09:19.216Z,15.97
2023-05-01T06:11:52.614Z,16.06
2023-05-01T06:14:22.564Z,16.15
2023-05-01T06:16:52.181Z,16.22
2023-05-01T06:19:21.841Z,16.30
2023-05-01T06:21:54.358Z,16.40
2023-05-01T06:24:23.937Z,16.43
2023-05-01T06:26:56.100Z,16.50
2023-05-01T06:29:25.798Z,16.53
2023-05-01T06:32:05.765Z,16.60
2023-05-01T06:34:35.793Z,16.71
2023-05-01T06:37:08.191Z,16.80
2023-05-01T06:39:37.856Z,16.91
2023-05-01T06:42:21.807Z,17.00
2023-05-01T06:44:57.554Z,17.09
2023-05-01T06:47:28.623Z,17.16
2023-05-01T06:50:00.290Z,17.24
2023-05-01T06:52:33.049Z,17.35
2023-05-01T06:55:02.549Z,17.51
2023-05-01T06:57:32.495Z,17.61
2023-05-01T07:00:05.744Z,17.71
2023-05-01T07:02:38.366Z,17.83
2023-05-01T07:05:08.661Z,17.96
2023-05-01T07:07:42.228Z,18.06
2023-05-01T07:10:19.844Z,18.19
2023-05-01T07:12:51.717Z,18.31
2023-05-01T07:15:21.539Z,18.42
2023-05-01T07:18:14.290Z,18.43
2023-05-01T07:20:43.795Z,18.40
2023-05-01T07:23:24.575Z,18.43
2023-05-01T07:25:56.184Z,18.56
2023-05-01T07:28:28.431Z,18.66
2023-05-01T07:31:01.877Z,18.73
2023-05-01T07:33:36.930Z,18.86
2023-05-01T07:36:06.575Z,18.98
2023-05-01T07:38:45.563Z,19.07
2023-05-01T07:41:16.521Z,19.03
